Time;durP1;ratioP1;P1;durP2;ratioP2;P2;SDS_P1;SDS_P2;PMS_P1;PMS_P2;Temp;Humidity;BMP_temperature;BMP_pressure;BME280_temperature;BME280_humidity;BME280_pressure;Samples;Min_cycle;Max_cycle;Signal;HPM_P1;HPM_P2
2022/08/25 00:01:44;;;;;;;4.43;2.87;;;;;;;;;;5076794;28;20028;-79
2022/08/25 00:04:12;;;;;;;5.13;2.83;;;;;;;;;;5072925;28;20420;-78
2022/08/25 00:06:39;;;;;;;3.08;2.67;;;;;;;;;;5074900;28;20025;-80
2022/08/25 00:09:06;;;;;;;4.00;3.05;;;;;;;;;;5076059;28;20028;-80
2022/08/25 00:11:32;;;;;;;3.60;3.03;;;;;;;;;;5073455;28;20065;-78
2022/08/25 00:14:01;;;;;;;3.65;2.72;;;;;;;;;;5078180;28;20429;-77
2022/08/25 00:16:30;;;;;;;5.80;3.30;;;;;;;;;;5074433;28;20162;-78
2022/08/25 00:18:57;;;;;;;5.22;2.90;;;;;;;;;;5078057;28;20382;-79
2022/08/25 00:21:24;;;;;;;2.95;2.60;;;;;;;;;;5075693;28;20020;-78
2022/08/25 00:23:50;;;;;;;3.78;3.13;;;;;;;;;;5075131;28;20024;-77
2022/08/25 00:26:16;;;;;;;6.03;2.90;;;;;;;;;;5076646;28;20132;-78
2022/08/25 00:28:43;;;;;;;4.38;2.88;;;;;;;;;;5077138;28;20491;-78
2022/08/25 00:31:14;;;;;;;5.68;3.22;;;;;;;;;;5087421;28;20020;-79
2022/08/25 00:33:41;;;;;;;2.67;2.47;;;;;;;;;;5077145;28;20036;-77
2022/08/25 00:36:07;;;;;;;3.47;2.92;;;;;;;;;;5090849;28;20028;-77
2022/08/25 00:38:32;;;;;;;3.45;2.67;;;;;;;;;;5089308;28;20032;-77
2022/08/25 00:41:04;;;;;;;3.15;2.70;;;;;;;;;;5091718;28;20020;-79
2022/08/25 00:43:44;;;;;;;2.70;2.50;;;;;;;;;;5091238;28;20166;-78
2022/08/25 00:46:17;;;;;;;4.15;2.50;;;;;;;;;;5091784;28;20584;-77
2022/08/25 00:48:44;;;;;;;2.72;2.38;;;;;;;;;;5088134;28;20393;-80
2022/08/25 00:51:12;;;;;;;3.22;2.35;;;;;;;;;;5090706;28;20028;-77
2022/08/25 00:53:38;;;;;;;3.55;2.60;;;;;;;;;;5091243;28;20345;-78
2022/08/25 00:56:04;;;;;;;2.90;2.60;;;;;;;;;;5091498;28;20433;-78
2022/08/25 00:58:31;;;;;;;3.20;2.58;;;;;;;;;;5091371;28;20032;-77
2022/08/25 01:00:58;;;;;;;3.10;2.63;;;;;;;;;;5090987;28;20020;-77
2022/08/25 01:03:25;;;;;;;4.78;2.40;;;;;;;;;;5091442;28;20024;-80
2022/08/25 01:05:52;;;;;;;2.60;2.40;;;;;;;;;;5088423;28;20028;-78
2022/08/25 01:08:20;;;;;;;3.00;2.70;;;;;;;;;;5090730;28;20022;-78
2022/08/25 01:10:46;;;;;;;3.40;3.03;;;;;;;;;;5091605;28;20031;-78
2022/08/25 01:13:18;;;;;;;3.25;2.50;;;;;;;;;;5089903;28;20115;-78
2022/08/25 01:15:45;;;;;;;2.95;2.50;;;;;;;;;;5090012;28;20019;-77
2022/08/25 01:18:11;;;;;;;3.05;2.63;;;;;;;;;;5091338;28;20070;-79
2022/08/25 01:20:37;;;;;;;3.63;2.42;;;;;;;;;;5073811;28;20533;-77
2022/08/25 01:23:03;;;;;;;2.85;2.60;;;;;;;;;;5070974;28;20029;-78
2022/08/25 01:25:30;;;;;;;4.90;2.80;;;;;;;;;;5070781;28;20139;-79
2022/08/25 01:27:56;;;;;;;2.95;2.55;;;;;;;;;;5070787;28;20048;-78
2022/08/25 01:30:22;;;;;;;3.50;2.80;;;;;;;;;;5075118;28;20020;-76
2022/08/25 01:32:48;;;;;;;4.82;2.53;;;;;;;;;;5081321;28;20034;-78
2022/08/25 01:35:14;;;;;;;3.35;2.78;;;;;;;;;;5077875;28;20024;-78
2022/08/25 01:37:40;;;;;;;4.35;2.45;;;;;;;;;;5073209;28;20470;-80
2022/08/25 01:40:06;;;;;;;2.75;2.40;;;;;;;;;;5075707;28;20107;-78
2022/08/25 01:42:51;;;;;;;4.07;2.30;;;;;;;;;;5076837;28;20125;-79
2022/08/25 01:45:17;;;;;;;3.20;2.90;;;;;;;;;;5074123;28;20013;-78
2022/08/25 01:47:43;;;;;;;3.88;2.65;;;;;;;;;;5074462;28;20019;-79
2022/08/25 01:50:10;;;;;;;2.78;2.58;;;;;;;;;;5080688;28;20114;-79
2022/08/25 01:52:55;;;;;;;2.42;2.22;;;;;;;;;;5074376;28;20080;-79
2022/08/25 01:55:21;;;;;;;2.75;2.50;;;;;;;;;;5074600;28;20029;-77
2022/08/25 01:57:47;;;;;;;3.30;2.50;;;;;;;;;;5068522;28;20032;-77
2022/08/25 02:00:14;;;;;;;2.85;2.60;;;;;;;;;;5078002;28;20020;-77
2022/08/25 02:02:41;;;;;;;3.38;2.75;;;;;;;;;;5089346;28;20029;-79
2022/08/25 02:05:07;;;;;;;4.28;3.13;;;;;;;;;;5089881;28;20058;-77
2022/08/25 02:07:33;;;;;;;3.35;2.70;;;;;;;;;;5090859;28;20035;-79
2022/08/25 02:10:01;;;;;;;3.40;2.70;;;;;;;;;;5090188;28;20028;-79
2022/08/25 02:12:30;;;;;;;3.33;2.90;;;;;;;;;;5093764;28;20028;-78
2022/08/25 02:14:56;;;;;;;3.50;2.50;;;;;;;;;;5093463;28;20043;-78
2022/08/25 02:17:22;;;;;;;2.95;2.50;;;;;;;;;;5094534;28;20472;-78
2022/08/25 02:19:48;;;;;;;3.58;2.75;;;;;;;;;;5092403;28;20054;-79
2022/08/25 02:22:14;;;;;;;4.13;2.72;;;;;;;;;;5094508;28;20553;-80
2022/08/25 02:24:40;;;;;;;2.50;2.30;;;;;;;;;;5094258;28;20050;-77
2022/08/25 02:27:07;;;;;;;2.95;2.58;;;;;;;;;;5093775;28;20123;-79
2022/08/25 02:29:33;;;;;;;3.38;2.35;;;;;;;;;;5090736;28;20019;-78
2022/08/25 02:31:59;;;;;;;5.00;2.80;;;;;;;;;;5091786;28;20111;-78
2022/08/25 02:34:25;;;;;;;3.50;2.78;;;;;;;;;;5093711;28;20054;-79
2022/08/25 02:36:51;;;;;;;4.90;2.90;;;;;;;;;;5093953;28;20028;-79
2022/08/25 02:39:17;;;;;;;8.63;3.05;;;;;;;;;;5093493;28;20480;-77
2022/08/25 02:41:43;;;;;;;3.35;2.60;;;;;;;;;;5094083;28;20028;-77
2022/08/25 02:44:09;;;;;;;3.10;2.53;;;;;;;;;;5094135;28;20024;-78
2022/08/25 02:46:36;;;;;;;3.83;2.90;;;;;;;;;;5073953;28;20024;-78
2022/08/25 02:49:02;;;;;;;2.75;2.55;;;;;;;;;;5073509;28;20024;-79
2022/08/25 02:51:28;;;;;;;4.03;2.90;;;;;;;;;;5073203;28;20086;-77
2022/08/25 02:53:56;;;;;;;3.22;2.92;;;;;;;;;;5072300;28;20102;-78
2022/08/25 02:56:23;;;;;;;2.78;2.58;;;;;;;;;;5082617;28;20028;-77
2022/08/25 02:58:49;;;;;;;3.05;2.83;;;;;;;;;;5080926;28;20269;-78
2022/08/25 03:01:16;;;;;;;2.78;2.58;;;;;;;;;;5075932;28;20024;-77
2022/08/25 03:03:43;;;;;;;4.13;2.83;;;;;;;;;;5080221;28;20016;-79
2022/08/25 03:06:10;;;;;;;3.15;2.85;;;;;;;;;;5087029;28;20028;-80
2022/08/25 03:08:36;;;;;;;3.10;2.80;;;;;;;;;;5077167;28;20061;-79
2022/08/25 03:11:03;;;;;;;3.58;3.08;;;;;;;;;;5072958;28;20024;-78
2022/08/25 03:13:31;;;;;;;3.13;2.85;;;;;;;;;;5072375;28;20126;-78
2022/08/25 03:15:57;;;;;;;3.47;3.17;;;;;;;;;;5077069;28;20020;-77
2022/08/25 03:18:23;;;;;;;3.75;3.20;;;;;;;;;;5080588;28;20051;-78
2022/08/25 03:20:49;;;;;;;3.40;2.85;;;;;;;;;;5078660;28;20040;-78
2022/08/25 03:23:16;;;;;;;3.05;2.72;;;;;;;;;;5072698;28;20052;-78
2022/08/25 03:28:27;;;;;;;2.90;2.60;;;;;;;;;;5093869;28;20055;-78
2022/08/25 03:30:53;;;;;;;4.00;2.90;;;;;;;;;;5092177;28;20024;-79
2022/08/25 03:33:19;;;;;;;3.28;2.72;;;;;;;;;;5093077;28;20021;-78
2022/08/25 03:35:45;;;;;;;5.43;3.15;;;;;;;;;;5092773;28;20028;-79
2022/08/25 03:38:11;;;;;;;4.53;2.97;;;;;;;;;;5091459;28;20044;-79
2022/08/25 03:40:37;;;;;;;3.97;2.95;;;;;;;;;;5088735;28;20046;-79
2022/08/25 03:43:03;;;;;;;5.13;2.72;;;;;;;;;;5093310;28;20569;-78
2022/08/25 03:45:29;;;;;;;3.72;2.80;;;;;;;;;;5091173;28;20016;-78
2022/08/25 03:47:55;;;;;;;3.08;2.72;;;;;;;;;;5091479;28;20036;-79
2022/08/25 03:50:22;;;;;;;5.13;2.90;;;;;;;;;;5092425;28;20048;-77
2022/08/25 03:52:55;;;;;;;3.13;2.83;;;;;;;;;;5092968;28;20437;-77
2022/08/25 03:55:22;;;;;;;4.22;2.92;;;;;;;;;;5088966;28;20016;-77
2022/08/25 03:57:48;;;;;;;3.63;2.80;;;;;;;;;;5070567;28;20178;-78
2022/08/25 04:00:14;;;;;;;3.05;2.75;;;;;;;;;;5071510;28;20048;-79
2022/08/25 04:02:41;;;;;;;4.93;2.90;;;;;;;;;;5071050;28;20024;-78
2022/08/25 04:05:08;;;;;;;3.13;2.47;;;;;;;;;;5071939;28;20028;-78
2022/08/25 04:07:34;;;;;;;3.00;2.80;;;;;;;;;;5070327;28;20029;-78
2022/08/25 04:10:00;;;;;;;3.58;2.90;;;;;;;;;;5070932;28;20075;-77
2022/08/25 04:12:26;;;;;;;5.45;3.40;;;;;;;;;;5072659;28;20440;-78
2022/08/25 04:14:52;;;;;;;3.30;3.00;;;;;;;;;;5070558;28;20016;-80
2022/08/25 04:17:18;;;;;;;4.43;3.00;;;;;;;;;;5070450;28;20036;-77
2022/08/25 04:19:44;;;;;;;4.03;2.83;;;;;;;;;;5072329;28;20025;-77
2022/08/25 04:22:10;;;;;;;3.05;2.75;;;;;;;;;;5074750;28;20099;-79
2022/08/25 04:24:36;;;;;;;3.70;3.00;;;;;;;;;;5077036;28;20028;-78
2022/08/25 04:27:02;;;;;;;3.25;2.90;;;;;;;;;;5071558;28;20075;-78
2022/08/25 04:29:28;;;;;;;3.35;3.05;;;;;;;;;;5077171;28;20370;-79
2022/08/25 04:31:54;;;;;;;3.47;2.90;;;;;;;;;;5080095;28;20024;-80
2022/08/25 04:34:21;;;;;;;4.47;2.75;;;;;;;;;;5076302;28;20039;-77
2022/08/25 04:36:49;;;;;;;3.20;2.90;;;;;;;;;;5078089;28;20024;-80
2022/08/25 04:39:16;;;;;;;3.20;2.90;;;;;;;;;;5091938;28;20031;-80
2022/08/25 04:41:42;;;;;;;3.65;3.13;;;;;;;;;;5091820;28;20027;-77
2022/08/25 04:44:08;;;;;;;3.97;2.92;;;;;;;;;;5091635;28;20032;-78
2022/08/25 04:46:34;;;;;;;3.20;2.90;;;;;;;;;;5091216;28;20019;-78
2022/08/25 04:49:01;;;;;;;3.35;3.00;;;;;;;;;;5091847;28;20016;-79
2022/08/25 04:51:29;;;;;;;4.80;2.83;;;;;;;;;;5088621;28;20028;-79
2022/08/25 04:53:58;;;;;;;4.10;3.08;;;;;;;;;;5091740;28;20370;-80
2022/08/25 04:56:24;;;;;;;;;;;;;;;;;;5091038;28;20020;-78
2022/08/25 04:58:50;;;;;;;3.05;2.75;;;;;;;;;;5091796;28;19904;-79
2022/08/25 05:01:21;;;;;;;4.35;2.72;;;;;;;;;;5085165;28;20030;-79
2022/08/25 05:03:48;;;;;;;3.33;3.03;;;;;;;;;;5086970;28;20474;-79
2022/08/25 05:06:14;;;;;;;5.35;3.00;;;;;;;;;;5090690;28;20024;-77
2022/08/25 05:08:40;;;;;;;2.95;2.75;;;;;;;;;;5079214;28;20443;-77
2022/08/25 05:11:07;;;;;;;3.20;2.65;;;;;;;;;;5077478;28;20025;-77
2022/08/25 05:13:34;;;;;;;4.82;2.90;;;;;;;;;;5070587;28;20036;-78
2022/08/25 05:16:00;;;;;;;3.83;3.00;;;;;;;;;;5073292;28;20108;-78
2022/08/25 05:18:27;;;;;;;4.07;2.80;;;;;;;;;;5078272;28;20516;-79
2022/08/25 05:20:54;;;;;;;3.25;2.95;;;;;;;;;;5086277;28;20063;-80
2022/08/25 05:23:21;;;;;;;4.10;2.85;;;;;;;;;;5078472;28;20055;-78
2022/08/25 05:25:47;;;;;;;4.85;3.15;;;;;;;;;;5087734;28;20023;-77
2022/08/25 05:28:13;;;;;;;3.75;3.28;;;;;;;;;;5074170;28;20056;-78
2022/08/25 05:30:40;;;;;;;3.08;2.67;;;;;;;;;;5072587;28;20132;-79
2022/08/25 05:33:07;;;;;;;3.30;2.70;;;;;;;;;;5075051;28;20109;-77
2022/08/25 05:35:33;;;;;;;3.90;2.78;;;;;;;;;;5073113;28;20032;-77
2022/08/25 05:37:59;;;;;;;4.35;3.05;;;;;;;;;;5084238;28;20035;-77
2022/08/25 05:40:25;;;;;;;6.32;3.10;;;;;;;;;;5075720;28;20027;-80
2022/08/25 05:42:51;;;;;;;6.40;3.20;;;;;;;;;;5070773;28;20025;-78
2022/08/25 05:45:17;;;;;;;5.70;3.20;;;;;;;;;;5085358;28;20108;-79
2022/08/25 05:47:44;;;;;;;3.63;2.67;;;;;;;;;;5088337;28;20032;-79
2022/08/25 05:50:10;;;;;;;3.28;2.58;;;;;;;;;;5079167;28;20029;-78
2022/08/25 05:52:37;;;;;;;6.97;2.88;;;;;;;;;;5083535;28;20038;-81
2022/08/25 05:55:03;;;;;;;3.97;2.80;;;;;;;;;;5088285;28;20020;-80
2022/08/25 05:57:29;;;;;;;2.90;2.70;;;;;;;;;;5081108;28;20463;-81
2022/08/25 05:59:55;;;;;;;3.45;2.83;;;;;;;;;;5081706;28;20024;-79
2022/08/25 06:05:22;;;;;;;3.38;2.83;;;;;;;;;;5065698;28;20575;-79
2022/08/25 06:07:49;;;;;;;3.63;2.80;;;;;;;;;;5074219;28;20063;-79
2022/08/25 06:10:16;;;;;;;3.10;2.55;;;;;;;;;;5084311;28;20077;-78
2022/08/25 06:12:46;;;;;;;3.40;2.80;;;;;;;;;;5087462;28;20107;-83
2022/08/25 06:15:13;;;;;;;3.20;2.60;;;;;;;;;;5093818;28;20028;-80
2022/08/25 06:17:40;;;;;;;3.42;3.03;;;;;;;;;;5084462;28;20470;-79
2022/08/25 06:20:10;;;;;;;3.60;2.90;;;;;;;;;;5084220;28;20028;-79
2022/08/25 06:22:36;;;;;;;3.72;2.95;;;;;;;;;;5086533;28;20039;-79
2022/08/25 06:25:02;;;;;;;3.85;3.35;;;;;;;;;;5093722;28;20489;-79
2022/08/25 06:27:28;;;;;;;3.53;2.80;;;;;;;;;;5079949;28;20056;-79
2022/08/25 06:29:54;;;;;;;6.97;3.13;;;;;;;;;;5079245;28;20024;-82
2022/08/25 06:32:20;;;;;;;3.05;2.75;;;;;;;;;;5092548;28;20039;-79
2022/08/25 06:34:46;;;;;;;4.75;2.80;;;;;;;;;;5093688;28;20216;-79
2022/08/25 06:37:12;;;;;;;3.00;2.70;;;;;;;;;;5079061;28;20071;-81
2022/08/25 06:39:38;;;;;;;4.18;2.90;;;;;;;;;;5092670;28;20093;-82
2022/08/25 06:42:04;;;;;;;4.05;2.55;;;;;;;;;;5090045;28;20474;-80
2022/08/25 06:44:30;;;;;;;3.60;2.70;;;;;;;;;;5094782;28;20466;-80
2022/08/25 06:46:56;;;;;;;4.50;2.47;;;;;;;;;;5088991;28;20035;-80
2022/08/25 06:49:26;;;;;;;3.30;2.88;;;;;;;;;;5075600;28;20052;-82
2022/08/25 06:51:52;;;;;;;4.43;2.47;;;;;;;;;;5087291;28;20450;-82
2022/08/25 06:54:18;;;;;;;4.15;2.67;;;;;;;;;;5081891;28;20112;-79
2022/08/25 06:56:44;;;;;;;5.70;2.85;;;;;;;;;;5080164;28;20103;-81
2022/08/25 06:59:10;;;;;;;4.60;3.08;;;;;;;;;;5080081;28;20024;-79
2022/08/25 07:01:36;;;;;;;3.80;2.50;;;;;;;;;;5076874;28;20070;-80
2022/08/25 07:04:03;;;;;;;3.90;2.85;;;;;;;;;;5081702;28;20028;-80
2022/08/25 07:06:30;;;;;;;5.22;2.33;;;;;;;;;;5079042;28;20274;-80
2022/08/25 07:08:57;;;;;;;3.70;2.53;;;;;;;;;;5084693;28;20039;-79
2022/08/25 07:11:23;;;;;;;5.30;2.42;;;;;;;;;;5079187;28;20539;-79
2022/08/25 07:13:49;;;;;;;2.80;2.50;;;;;;;;;;5079112;28;20454;-79
2022/08/25 07:16:16;;;;;;;3.75;2.00;;;;;;;;;;5080624;28;20101;-79
2022/08/25 07:18:43;;;;;;;3.85;2.00;;;;;;;;;;5079404;28;20067;-81
2022/08/25 07:21:09;;;;;;;2.95;2.42;;;;;;;;;;5081938;28;20465;-79
2022/08/25 07:23:36;;;;;;;3.58;2.00;;;;;;;;;;5082674;28;20035;-78
2022/08/25 07:26:08;;;;;;;2.00;1.80;;;;;;;;;;5073540;28;20020;-81
2022/08/25 07:28:34;;;;;;;4.63;2.40;;;;;;;;;;5088522;28;20024;-80
2022/08/25 07:31:00;;;;;;;2.33;1.83;;;;;;;;;;5076832;28;20035;-79
2022/08/25 07:33:26;;;;;;;4.68;2.10;;;;;;;;;;5079808;28;20481;-79
2022/08/25 07:35:53;;;;;;;2.45;2.05;;;;;;;;;;5093904;28;20356;-80
2022/08/25 07:38:19;;;;;;;2.40;2.15;;;;;;;;;;5079535;28;20032;-79
2022/08/25 07:40:44;;;;;;;2.22;2.03;;;;;;;;;;5092627;28;20038;-79
2022/08/25 07:43:11;;;;;;;2.75;1.88;;;;;;;;;;5093432;28;20031;-80
2022/08/25 07:45:38;;;;;;;1.83;1.70;;;;;;;;;;5093803;28;20016;-79
2022/08/25 07:48:07;;;;;;;2.25;2.05;;;;;;;;;;5090029;28;20395;-81
2022/08/25 07:50:33;;;;;;;2.97;1.85;;;;;;;;;;5093499;28;20020;-80
2022/08/25 07:52:59;;;;;;;3.25;1.95;;;;;;;;;;5091909;28;20032;-80
2022/08/25 07:55:26;;;;;;;3.60;2.80;;;;;;;;;;5093783;28;20024;-80
2022/08/25 07:57:52;;;;;;;4.97;1.95;;;;;;;;;;5093377;28;20115;-78
2022/08/25 08:00:19;;;;;;;4.22;1.80;;;;;;;;;;5091810;28;20451;-78
2022/08/25 08:02:45;;;;;;;3.80;2.10;;;;;;;;;;5093208;28;20129;-79
2022/08/25 08:05:12;;;;;;;4.28;1.92;;;;;;;;;;5093305;28;20103;-80
2022/08/25 08:07:38;;;;;;;3.03;2.05;;;;;;;;;;5073685;28;20036;-79
2022/08/25 08:10:05;;;;;;;2.40;1.85;;;;;;;;;;5070752;28;20510;-79
2022/08/25 08:12:31;;;;;;;3.95;1.83;;;;;;;;;;5072839;28;20029;-79
2022/08/25 08:14:58;;;;;;;3.70;2.10;;;;;;;;;;5072529;28;20028;-79
2022/08/25 08:17:24;;;;;;;3.45;2.38;;;;;;;;;;5077788;28;20077;-79
2022/08/25 08:19:50;;;;;;;3.60;2.00;;;;;;;;;;5092013;28;20024;-79
2022/08/25 08:22:16;;;;;;;3.05;2.10;;;;;;;;;;5092591;28;20390;-79
2022/08/25 08:24:43;;;;;;;2.53;2.08;;;;;;;;;;5092946;28;20073;-80
2022/08/25 08:27:10;;;;;;;4.65;2.10;;;;;;;;;;5091886;28;20048;-81
2022/08/25 08:29:36;;;;;;;2.50;2.08;;;;;;;;;;5092295;28;20063;-82
2022/08/25 08:32:03;;;;;;;3.47;2.17;;;;;;;;;;5088134;28;20497;-80
2022/08/25 08:34:29;;;;;;;3.88;2.13;;;;;;;;;;5089210;28;20087;-84
2022/08/25 08:36:56;;;;;;;2.38;2.00;;;;;;;;;;5078943;28;20035;-82
2022/08/25 08:39:22;;;;;;;3.05;2.17;;;;;;;;;;5084172;28;20027;-83
2022/08/25 08:44:35;;;;;;;3.75;2.30;;;;;;;;;;5071919;28;20063;-82
2022/08/25 08:47:10;;;;;;;3.28;1.90;;;;;;;;;;5080377;28;20027;-84
2022/08/25 08:49:44;;;;;;;3.05;1.70;;;;;;;;;;5079325;28;20023;-83
2022/08/25 08:52:14;;;;;;;2.75;2.00;;;;;;;;;;5082405;28;20579;-83
2022/08/25 08:54:42;;;;;;;3.45;1.90;;;;;;;;;;5078513;28;20091;-82
2022/08/25 08:57:08;;;;;;;2.83;1.90;;;;;;;;;;5075833;28;20024;-83
2022/08/25 08:59:40;;;;;;;6.40;2.13;;;;;;;;;;5073034;28;20509;-84
2022/08/25 09:02:12;;;;;;;2.70;2.05;;;;;;;;;;5077674;28;20031;-82
2022/08/25 09:04:42;;;;;;;2.85;1.95;;;;;;;;;;5078505;28;20025;-83
2022/08/25 09:07:13;;;;;;;3.55;2.20;;;;;;;;;;5070505;28;20123;-83
2022/08/25 09:09:41;;;;;;;4.43;2.10;;;;;;;;;;5083398;28;20505;-83
2022/08/25 09:12:26;;;;;;;3.95;2.17;;;;;;;;;;5091821;28;20033;-82
2022/08/25 09:15:01;;;;;;;2.55;1.88;;;;;;;;;;5091525;28;20020;-83
2022/08/25 09:17:27;;;;;;;2.42;1.85;;;;;;;;;;5090695;28;20059;-82
2022/08/25 09:20:33;;;;;;;2.50;1.90;;;;;;;;;;5091851;28;20048;-83
2022/08/25 09:23:17;;;;;;;2.05;1.65;;;;;;;;;;5029029;28;20029;-82
2022/08/25 09:25:53;;;;;;;5.05;2.10;;;;;;;;;;5009345;28;20578;-82
2022/08/25 09:28:29;;;;;;;4.65;2.10;;;;;;;;;;5043701;28;20040;-82
2022/08/25 09:31:00;;;;;;;2.65;2.00;;;;;;;;;;5070284;28;20066;-82
2022/08/25 09:33:27;;;;;;;2.53;1.80;;;;;;;;;;5069996;28;20505;-82
2022/08/25 09:35:54;;;;;;;2.22;1.63;;;;;;;;;;5070331;28;20463;-82
2022/08/25 09:38:20;;;;;;;2.15;1.80;;;;;;;;;;5072651;28;20036;-82
2022/08/25 09:40:48;;;;;;;2.50;1.90;;;;;;;;;;5081255;28;20037;-84
2022/08/25 09:43:22;;;;;;;2.65;2.00;;;;;;;;;;5070741;28;20028;-80
2022/08/25 09:45:55;;;;;;;2.15;1.80;;;;;;;;;;5071285;28;20056;-80
2022/08/25 09:48:22;;;;;;;3.25;2.00;;;;;;;;;;5071571;28;20028;-81
2022/08/25 09:50:49;;;;;;;2.63;1.95;;;;;;;;;;5071820;28;20031;-79
2022/08/25 09:53:16;;;;;;;3.67;1.70;;;;;;;;;;5072148;28;20024;-80
2022/08/25 09:55:43;;;;;;;3.35;1.55;;;;;;;;;;5091837;28;20077;-79
2022/08/25 09:58:19;;;;;;;4.15;2.00;;;;;;;;;;5090153;28;20028;-79
2022/08/25 10:01:00;;;;;;;2.85;2.10;;;;;;;;;;5090528;28;20120;-80
2022/08/25 10:03:26;;;;;;;2.83;1.75;;;;;;;;;;5091963;28;20055;-78
2022/08/25 10:05:57;;;;;;;3.28;1.90;;;;;;;;;;5090614;28;20020;-78
2022/08/25 10:08:35;;;;;;;2.65;1.60;;;;;;;;;;5086341;28;20035;-79
2022/08/25 10:11:03;;;;;;;2.53;1.60;;;;;;;;;;5089951;28;20462;-79
2022/08/25 10:13:29;;;;;;;;;;;;;;;;;;5091605;28;20024;-81
2022/08/25 10:16:03;;;;;;;1.92;1.50;;;;;;;;;;5075780;28;19911;-79
2022/08/25 10:18:29;;;;;;;2.67;1.67;;;;;;;;;;5091314;28;20042;-79
2022/08/25 10:21:04;;;;;;;2.15;1.70;;;;;;;;;;5091399;28;20048;-79
2022/08/25 10:23:32;;;;;;;4.00;1.60;;;;;;;;;;5091139;28;20028;-80
2022/08/25 10:26:02;;;;;;;3.90;1.98;;;;;;;;;;5090842;28;20548;-80
2022/08/25 10:29:00;;;;;;;1.52;1.42;;;;;;;;;;5088052;28;20029;-80
2022/08/25 10:31:26;;;;;;;;;;;;;;;;;;5037972;28;20045;-78
2022/08/25 10:33:51;;;;;;;2.38;1.40;;;;;;;;;;5073828;28;19910;-80
2022/08/25 10:36:43;;;;;;;3.17;1.60;;;;;;;;;;5074770;28;20028;-80
2022/08/25 10:39:15;;;;;;;1.40;1.30;;;;;;;;;;5074348;28;20033;-79
2022/08/25 10:41:56;;;;;;;1.63;1.30;;;;;;;;;;5074644;28;20478;-79
2022/08/25 10:47:31;;;;;;;1.58;1.40;;;;;;;;;;5074789;28;20036;-79
2022/08/25 10:50:04;;;;;;;2.33;1.30;;;;;;;;;;5076342;28;20393;-79
2022/08/25 10:52:36;;;;;;;2.63;1.67;;;;;;;;;;5083168;28;20020;-79
2022/08/25 10:55:17;;;;;;;2.42;1.55;;;;;;;;;;5088391;28;20218;-80
2022/08/25 10:58:01;;;;;;;2.03;1.60;;;;;;;;;;5076326;28;20036;-80
2022/08/25 11:00:34;;;;;;;3.08;1.60;;;;;;;;;;5084905;28;20024;-79
2022/08/25 11:03:05;;;;;;;1.83;1.55;;;;;;;;;;5084002;28;20021;-80
2022/08/25 11:05:39;;;;;;;1.90;1.52;;;;;;;;;;5088754;28;20066;-79
2022/08/25 11:08:24;;;;;;;2.88;1.40;;;;;;;;;;5093909;28;20020;-80
2022/08/25 11:10:59;;;;;;;1.75;1.58;;;;;;;;;;5092290;28;20020;-79
2022/08/25 11:13:41;;;;;;;2.72;1.73;;;;;;;;;;5092837;28;20066;-80
2022/08/25 11:16:19;;;;;;;2.47;1.45;;;;;;;;;;5093595;28;20085;-80
2022/08/25 11:18:49;;;;;;;2.57;1.40;;;;;;;;;;5093157;28;20054;-80
2022/08/25 11:21:18;;;;;;;2.10;1.55;;;;;;;;;;5091284;28;20252;-80
2022/08/25 11:23:49;;;;;;;1.98;1.70;;;;;;;;;;5092246;28;20020;-81
2022/08/25 11:26:20;;;;;;;2.60;1.70;;;;;;;;;;5093759;28;20028;-80
2022/08/25 11:28:48;;;;;;;2.63;1.48;;;;;;;;;;5093439;28;20028;-81
2022/08/25 11:31:15;;;;;;;2.40;1.55;;;;;;;;;;5083227;28;20032;-79
2022/08/25 11:33:42;;;;;;;2.63;1.50;;;;;;;;;;5086007;28;20111;-81
2022/08/25 11:36:14;;;;;;;2.83;1.45;;;;;;;;;;5077073;28;20429;-79
2022/08/25 11:38:52;;;;;;;2.92;1.90;;;;;;;;;;5076381;28;20036;-80
2022/08/25 11:41:19;;;;;;;3.08;1.40;;;;;;;;;;5077887;28;20028;-79
2022/08/25 11:44:03;;;;;;;1.98;1.50;;;;;;;;;;5076551;28;20093;-80
2022/08/25 11:46:50;;;;;;;1.67;1.58;;;;;;;;;;5082143;28;20104;-80
2022/08/25 11:49:30;;;;;;;2.30;1.50;;;;;;;;;;5076497;28;20058;-79
2022/08/25 11:51:57;;;;;;;1.38;1.27;;;;;;;;;;5082147;28;20115;-80
2022/08/25 11:54:34;;;;;;;2.17;1.60;;;;;;;;;;5074585;28;20434;-80
2022/08/25 11:57:01;;;;;;;2.85;1.50;;;;;;;;;;5080129;28;20091;-80
2022/08/25 11:59:46;;;;;;;2.30;1.48;;;;;;;;;;5082546;28;20131;-80
2022/08/25 12:02:28;;;;;;;1.65;1.48;;;;;;;;;;5077369;28;20053;-80
2022/08/25 12:04:54;;;;;;;3.78;1.58;;;;;;;;;;5078856;28;20016;-76
2022/08/25 12:07:25;;;;;;;3.72;1.58;;;;;;;;;;5077501;28;20078;-78
2022/08/25 12:09:54;;;;;;;2.28;1.50;;;;;;;;;;5080085;28;20498;-78
2022/08/25 12:12:38;;;;;;;1.42;1.33;;;;;;;;;;5081943;28;20089;-78
2022/08/25 12:15:22;;;;;;;2.03;1.48;;;;;;;;;;5079631;28;20095;-78
2022/08/25 12:18:07;;;;;;;2.75;1.30;;;;;;;;;;5074121;28;20036;-78
2022/08/25 12:20:52;;;;;;;1.20;1.10;;;;;;;;;;5078799;28;20095;-81
2022/08/25 12:23:32;;;;;;;1.80;1.50;;;;;;;;;;5074420;28;20066;-79
2022/08/25 12:26:00;;;;;;;2.53;1.50;;;;;;;;;;5073720;28;20443;-79
2022/08/25 12:28:44;;;;;;;2.88;1.67;;;;;;;;;;5080162;28;20440;-79
2022/08/25 12:31:41;;;;;;;2.03;1.55;;;;;;;;;;5079208;28;20028;-79
2022/08/25 12:34:12;;;;;;;1.85;1.48;;;;;;;;;;5071628;28;20043;-79
2022/08/25 12:36:38;;;;;;;3.00;1.60;;;;;;;;;;5089320;28;20829;-78
2022/08/25 12:39:17;;;;;;;2.63;1.35;;;;;;;;;;5078959;28;20025;-79
2022/08/25 12:41:55;;;;;;;5.10;1.60;;;;;;;;;;5083633;28;20039;-81
2022/08/25 12:44:39;;;;;;;3.42;1.50;;;;;;;;;;5085046;28;20034;-80
2022/08/25 12:47:26;;;;;;;3.95;1.45;;;;;;;;;;5078445;28;20157;-79
2022/08/25 12:49:52;;;;;;;2.47;1.60;;;;;;;;;;5078835;28;20021;-78
2022/08/25 12:52:20;;;;;;;2.95;1.60;;;;;;;;;;5078156;28;20079;-78
2022/08/25 12:54:52;;;;;;;1.67;1.55;;;;;;;;;;5074705;28;20118;-77
2022/08/25 12:57:27;;;;;;;2.17;1.30;;;;;;;;;;5078029;28;20750;-78
2022/08/25 12:59:54;;;;;;;1.55;1.42;;;;;;;;;;5074378;28;20631;-78
2022/08/25 13:02:35;;;;;;;2.67;1.40;;;;;;;;;;5073714;28;20583;-78
2022/08/25 13:05:16;;;;;;;1.77;1.40;;;;;;;;;;5073485;28;20126;-79
2022/08/25 13:07:57;;;;;;;3.65;1.70;;;;;;;;;;5076735;28;20020;-78
2022/08/25 13:10:31;;;;;;;4.07;2.00;;;;;;;;;;5078189;28;20111;-78
2022/08/25 13:13:00;;;;;;;1.85;1.20;;;;;;;;;;5082013;28;20028;-79
2022/08/25 13:15:31;;;;;;;2.95;1.60;;;;;;;;;;5079421;28;20482;-78
2022/08/25 13:18:12;;;;;;;2.88;1.40;;;;;;;;;;5079341;28;20033;-78
2022/08/25 13:20:38;;;;;;;2.95;1.50;;;;;;;;;;5075483;28;20074;-79
2022/08/25 13:23:04;;;;;;;3.10;1.70;;;;;;;;;;5070350;28;20025;-78
2022/08/25 13:25:31;;;;;;;2.28;1.50;;;;;;;;;;5077041;28;20232;-77
2022/08/25 13:27:59;;;;;;;1.35;1.20;;;;;;;;;;5072201;28;20044;-81
2022/08/25 13:30:28;;;;;;;2.67;1.50;;;;;;;;;;5072885;28;20028;-77
2022/08/25 13:32:54;;;;;;;3.05;1.58;;;;;;;;;;5078821;28;20039;-78
2022/08/25 13:35:22;;;;;;;1.70;1.58;;;;;;;;;;5082764;28;20038;-76
2022/08/25 13:37:49;;;;;;;2.10;1.60;;;;;;;;;;5076014;28;20395;-77
2022/08/25 13:40:26;;;;;;;1.60;1.50;;;;;;;;;;5074371;28;20129;-78
2022/08/25 13:42:54;;;;;;;2.20;1.70;;;;;;;;;;5080552;28;20021;-77
2022/08/25 13:45:24;;;;;;;2.65;1.70;;;;;;;;;;5082999;28;20120;-78
2022/08/25 13:47:51;;;;;;;3.28;1.30;;;;;;;;;;5075610;28;20040;-78
2022/08/25 13:50:28;;;;;;;2.20;1.60;;;;;;;;;;5075018;28;20029;-81
2022/08/25 13:52:55;;;;;;;4.30;1.73;;;;;;;;;;5076243;28;20120;-78
2022/08/25 13:55:46;;;;;;;3.60;1.77;;;;;;;;;;5076962;28;20439;-79
2022/08/25 13:58:14;;;;;;;2.00;1.52;;;;;;;;;;5048786;28;20289;-77
2022/08/25 14:00:45;;;;;;;3.20;1.60;;;;;;;;;;5074018;28;20023;-77
2022/08/25 14:03:29;;;;;;;2.55;1.70;;;;;;;;;;5077553;28;20609;-78
2022/08/25 14:06:06;;;;;;;1.80;1.50;;;;;;;;;;5076320;28;20024;-77
2022/08/25 14:08:34;;;;;;;2.42;1.50;;;;;;;;;;5082138;28;20663;-78
2022/08/25 14:11:08;;;;;;;3.22;1.60;;;;;;;;;;5080313;28;20043;-78
2022/08/25 14:13:35;;;;;;;2.13;1.63;;;;;;;;;;5079487;28;20020;-80
2022/08/25 14:16:08;;;;;;;2.55;1.40;;;;;;;;;;5087692;28;20016;-77
2022/08/25 14:18:34;;;;;;;2.58;1.70;;;;;;;;;;5083049;28;20040;-77
2022/08/25 14:21:03;;;;;;;3.53;1.63;;;;;;;;;;5086534;28;20450;-78
2022/08/25 14:23:30;;;;;;;3.25;1.65;;;;;;;;;;5089839;28;20501;-77
2022/08/25 14:25:57;;;;;;;1.85;1.65;;;;;;;;;;5088287;28;20153;-77
2022/08/25 14:28:24;;;;;;;1.63;1.50;;;;;;;;;;5073309;28;20036;-78
2022/08/25 14:30:52;;;;;;;2.53;1.60;;;;;;;;;;5081693;28;20031;-82
2022/08/25 14:33:18;;;;;;;;;;;;;;;;;;5090195;28;20028;-79
2022/08/25 14:35:46;;;;;;;2.70;1.67;;;;;;;;;;5094271;28;19911;-77
2022/08/25 14:38:12;;;;;;;;;;;;;;;;;;5094517;28;20035;-78
2022/08/25 14:40:38;;;;;;;3.03;1.58;;;;;;;;;;5093490;28;19988;-77
2022/08/25 14:43:05;;;;;;;2.10;1.60;;;;;;;;;;5093755;28;20016;-77
2022/08/25 14:45:31;;;;;;;2.05;1.60;;;;;;;;;;5083058;28;20035;-78
2022/08/25 14:48:02;;;;;;;1.73;1.35;;;;;;;;;;5082930;28;20103;-77
2022/08/25 14:50:28;;;;;;;2.22;1.73;;;;;;;;;;5092783;28;20074;-77
2022/08/25 14:52:54;;;;;;;2.22;1.65;;;;;;;;;;5073287;28;20028;-78
2022/08/25 14:55:20;;;;;;;1.58;1.48;;;;;;;;;;5073201;28;20052;-77
2022/08/25 14:57:46;;;;;;;1.67;1.52;;;;;;;;;;5083796;28;20079;-78
2022/08/25 15:00:12;;;;;;;5.47;1.63;;;;;;;;;;5093346;28;20378;-77
2022/08/25 15:02:40;;;;;;;1.70;1.60;;;;;;;;;;5093235;28;20482;-78
2022/08/25 15:05:10;;;;;;;2.03;1.50;;;;;;;;;;5090123;28;20474;-78
2022/08/25 15:10:21;;;;;;;1.60;1.50;;;;;;;;;;5083318;28;20034;-77
2022/08/25 15:12:47;;;;;;;1.55;1.45;;;;;;;;;;5081536;28;20050;-78